Anhee, Belgium
Current Conditions -  °F | °C
As of 7:25 AM on Saturday 25 Oct 2014 (Local Time) from EBFS Reporting Station
Haze Haze  
Wind Chill: 50°   Ceiling: 400
Heat Index: 50°   Visibility: 3mi
Dew Point: 50°   Wind: 7mph
Humidity: 100%   Direction: 210°SSW
Pressure: 30.06"   Gusts: NA
Location:  50.31°N, 4.88°E
Report Text: EBFS 250525Z 21006KT 5000 BR SCT002 BKN004 BKN007 10/10 Q1018 AMB
Loading
Personal Weather Stations






























Interactive Weather Map
Tropical Storm Tracking
New forecast layout! Learn more

10-Day Weather Forecast

Advertisements
Track Severe Weather on mobile